createdAt,value
2018-03-30T00:00:00.935Z,6.39
2018-03-30T00:00:27.092Z,6.36
2018-03-30T00:00:53.240Z,6.31
2018-03-30T00:01:19.376Z,6.45
2018-03-30T00:01:45.525Z,6.39
2018-03-30T00:02:11.680Z,6.45
2018-03-30T00:02:37.808Z,6.41
2018-03-30T00:03:03.946Z,6.44
2018-03-30T00:03:30.077Z,6.39
2018-03-30T00:03:56.221Z,6.41
2018-03-30T00:04:22.358Z,6.48
2018-03-30T00:04:48.489Z,6.51
2018-03-30T00:05:14.628Z,6.45
2018-03-30T00:05:40.765Z,6.41
2018-03-30T00:06:06.897Z,6.51
2018-03-30T00:06:33.073Z,6.51
2018-03-30T00:06:59.193Z,6.48
2018-03-30T00:07:25.330Z,6.49
2018-03-30T00:07:51.471Z,6.49
2018-03-30T00:08:17.676Z,6.51
2018-03-30T00:08:43.813Z,6.56
2018-03-30T00:09:09.955Z,6.56
2018-03-30T00:09:36.113Z,6.59
2018-03-30T00:10:02.251Z,6.57
2018-03-30T00:10:28.390Z,6.6
2018-03-30T00:10:54.537Z,6.62
2018-03-30T00:11:20.687Z,6.6
2018-03-30T00:11:46.830Z,6.6
2018-03-30T00:12:12.986Z,6.63
2018-03-30T00:12:39.149Z,6.57
2018-03-30T00:13:05.292Z,6.59
2018-03-30T00:13:31.453Z,6.62
2018-03-30T00:13:57.589Z,6.57
2018-03-30T00:14:23.726Z,6.49
2018-03-30T00:14:49.858Z,6.44
2018-03-30T00:15:15.997Z,6.44
2018-03-30T00:15:42.139Z,6.45
2018-03-30T00:16:08.276Z,6.52
2018-03-30T00:16:34.442Z,6.52
2018-03-30T00:17:00.600Z,6.48
2018-03-30T00:17:26.759Z,6.51
2018-03-30T00:17:52.917Z,6.48
2018-03-30T00:18:19.055Z,6.49
2018-03-30T00:18:45.191Z,6.52
2018-03-30T00:19:11.333Z,6.51
2018-03-30T00:19:37.469Z,6.48
2018-03-30T00:20:03.605Z,6.52
2018-03-30T00:20:29.743Z,6.57
2018-03-30T00:20:55.882Z,6.63
2018-03-30T00:21:22.019Z,6.57
2018-03-30T00:21:48.153Z,6.63
2018-03-30T00:22:14.301Z,6.6
2018-03-30T00:22:40.441Z,6.59
2018-03-30T00:23:06.583Z,6.63
2018-03-30T00:23:32.736Z,6.62
2018-03-30T00:23:58.875Z,6.57
2018-03-30T00:24:25.009Z,6.51
2018-03-30T00:24:51.150Z,6.49
2018-03-30T00:25:17.292Z,6.44
2018-03-30T00:25:43.430Z,6.36
2018-03-30T00:26:09.560Z,6.35
2018-03-30T00:26:35.697Z,6.22
2018-03-30T00:27:01.828Z,6.31
2018-03-30T00:27:27.975Z,6.35
2018-03-30T00:27:54.098Z,6.3
2018-03-30T00:28:20.419Z,6.33
2018-03-30T00:28:46.557Z,6.36
2018-03-30T00:29:12.691Z,6.35
2018-03-30T00:29:38.833Z,6.36
2018-03-30T00:30:04.960Z,6.42
2018-03-30T00:30:31.092Z,6.41
2018-03-30T00:30:57.235Z,6.44
2018-03-30T00:31:23.380Z,6.48
2018-03-30T00:31:49.520Z,6.41
2018-03-30T00:32:15.659Z,6.33
2018-03-30T00:32:41.796Z,6.41
2018-03-30T00:33:07.959Z,6.39
2018-03-30T00:33:34.141Z,6.45
2018-03-30T00:34:00.277Z,6.46
2018-03-30T00:34:26.438Z,6.46
2018-03-30T00:34:52.571Z,6.35
2018-03-30T00:35:18.708Z,6.36
2018-03-30T00:35:44.845Z,6.35
2018-03-30T00:36:10.984Z,6.36
2018-03-30T00:36:37.146Z,6.36
2018-03-30T00:37:03.305Z,6.31
2018-03-30T00:37:29.442Z,6.33
2018-03-30T00:37:55.578Z,6.31
2018-03-30T00:38:21.742Z,6.38
2018-03-30T00:38:47.882Z,6.26
2018-03-30T00:39:14.032Z,6.38
2018-03-30T00:39:40.193Z,6.3
2018-03-30T00:40:06.325Z,6.39
2018-03-30T00:40:32.464Z,6.33
2018-03-30T00:40:58.602Z,6.3
2018-03-30T00:41:24.741Z,6.35
2018-03-30T00:41:50.874Z,6.45
2018-03-30T00:42:17.009Z,6.36
2018-03-30T00:42:43.170Z,6.46
2018-03-30T00:43:09.311Z,6.49
2018-03-30T00:43:35.445Z,6.42
2018-03-30T00:44:01.602Z,6.31
2018-03-30T00:44:27.739Z,6.33
2018-03-30T00:44:53.871Z,6.31
2018-03-30T00:45:20.007Z,6.28
2018-03-30T00:45:46.146Z,6.24
2018-03-30T00:46:12.283Z,6.3
2018-03-30T00:46:38.417Z,6.38
2018-03-30T00:47:04.566Z,6.31
2018-03-30T00:47:30.736Z,6.22
2018-03-30T00:47:56.872Z,6.24
2018-03-30T00:48:23.010Z,6.28
2018-03-30T00:48:49.136Z,6.22
2018-03-30T00:49:15.279Z,6.2
2018-03-30T00:49:41.407Z,6.07
2018-03-30T00:50:07.538Z,6.05
2018-03-30T00:50:33.676Z,6.05
2018-03-30T00:50:59.808Z,6.17
2018-03-30T00:51:25.975Z,6.11
2018-03-30T00:51:52.132Z,6.17
2018-03-30T00:52:18.274Z,6.12
2018-03-30T00:52:44.413Z,6.14
2018-03-30T00:53:10.577Z,6.14
2018-03-30T00:53:36.709Z,6.16
2018-03-30T00:54:02.849Z,6.27
2018-03-30T00:54:28.982Z,6.35
2018-03-30T00:54:55.127Z,6.28
2018-03-30T00:55:21.261Z,6.3
2018-03-30T00:55:47.400Z,6.22
2018-03-30T00:56:13.561Z,6.12
2018-03-30T00:56:39.702Z,6.14
2018-03-30T00:57:05.839Z,6.27
2018-03-30T00:57:31.978Z,6.27
2018-03-30T00:57:58.111Z,6.16
2018-03-30T00:58:24.251Z,6.19
2018-03-30T00:58:50.384Z,6.12
2018-03-30T00:59:16.519Z,6.12
2018-03-30T00:59:42.660Z,6.12
2018-03-30T01:00:08.797Z,6.14
2018-03-30T01:00:34.934Z,6.09
2018-03-30T01:01:01.070Z,6.14
2018-03-30T01:01:27.236Z,6.14
2018-03-30T01:01:53.390Z,6.08
2018-03-30T01:02:19.551Z,6.07
2018-03-30T01:02:45.684Z,6.09
2018-03-30T01:03:11.821Z,6.16
2018-03-30T01:03:37.953Z,6.14
2018-03-30T01:04:04.104Z,6.09
2018-03-30T01:04:30.263Z,6.07
2018-03-30T01:04:56.398Z,6.08
2018-03-30T01:05:22.532Z,6.09
2018-03-30T01:05:48.668Z,6.09
2018-03-30T01:06:14.809Z,6.12
2018-03-30T01:06:40.960Z,6.11
2018-03-30T01:07:07.092Z,6.04
2018-03-30T01:07:33.254Z,6.08
2018-03-30T01:07:59.389Z,6.17
2018-03-30T01:08:25.539Z,6.2
2018-03-30T01:08:51.705Z,6.19
2018-03-30T01:09:17.836Z,6.16
2018-03-30T01:09:43.969Z,6.16
2018-03-30T01:10:10.116Z,6.07
2018-03-30T01:10:36.250Z,6.04
2018-03-30T01:11:02.386Z,6.05
2018-03-30T01:11:28.523Z,6.12
2018-03-30T01:11:54.661Z,6.2
2018-03-30T01:12:20.818Z,6.2
2018-03-30T01:12:46.957Z,6.26
2018-03-30T01:13:13.095Z,6.2
2018-03-30T01:13:39.235Z,6.2
2018-03-30T01:14:05.362Z,6.24
2018-03-30T01:14:31.498Z,6.11
2018-03-30T01:14:57.633Z,6.07
2018-03-30T01:15:23.771Z,6.16
2018-03-30T01:15:49.902Z,6.16
2018-03-30T01:16:16.039Z,6.14
2018-03-30T01:16:42.170Z,6.14
2018-03-30T01:17:08.335Z,6.22
2018-03-30T01:17:34.474Z,6.14
2018-03-30T01:18:00.605Z,6.16
2018-03-30T01:18:26.755Z,6.05
2018-03-30T01:18:52.894Z,6.05
2018-03-30T01:19:19.028Z,6.11
2018-03-30T01:19:45.167Z,6.07
2018-03-30T01:20:11.299Z,6.11
2018-03-30T01:20:37.438Z,5.99
2018-03-30T01:21:03.575Z,6.02
2018-03-30T01:21:29.707Z,6.04
2018-03-30T01:21:55.846Z,6.08
2018-03-30T01:22:22.005Z,6.12
2018-03-30T01:22:48.139Z,6.11
2018-03-30T01:23:14.295Z,6.14
2018-03-30T01:23:40.435Z,6.24
2018-03-30T01:24:06.575Z,6.17
2018-03-30T01:24:32.711Z,6.11
2018-03-30T01:24:58.846Z,6.12
2018-03-30T01:25:24.985Z,6.09
2018-03-30T01:25:51.124Z,6.01
2018-03-30T01:26:17.260Z,5.93
2018-03-30T01:26:43.397Z,5.99
2018-03-30T01:27:09.543Z,6.01
2018-03-30T01:27:35.679Z,6.07
2018-03-30T01:28:01.815Z,6.09
2018-03-30T01:28:27.947Z,6.08
2018-03-30T01:28:54.108Z,6.08
2018-03-30T01:29:20.249Z,6.19
2018-03-30T01:29:46.391Z,6.07
2018-03-30T01:30:12.571Z,6.16
2018-03-30T01:30:38.704Z,6.12
2018-03-30T01:31:04.854Z,6.07
2018-03-30T01:31:30.991Z,6.11
2018-03-30T01:31:57.133Z,6.14
2018-03-30T01:32:23.270Z,6.01
2018-03-30T01:32:49.404Z,6.02
2018-03-30T01:33:15.538Z,6.11
2018-03-30T01:33:41.675Z,6.09
2018-03-30T01:34:07.811Z,6.19
2018-03-30T01:34:33.951Z,6.2
2018-03-30T01:35:00.081Z,6.33
2018-03-30T01:35:26.222Z,6.24
2018-03-30T01:35:52.356Z,6.27
2018-03-30T01:36:18.509Z,6.19
2018-03-30T01:36:44.651Z,6.14
2018-03-30T01:37:10.797Z,6.16
2018-03-30T01:37:36.927Z,6.09
2018-03-30T01:38:03.061Z,6.09
2018-03-30T01:38:29.197Z,6.12
2018-03-30T01:38:55.357Z,6.07
2018-03-30T01:39:21.498Z,6.09
2018-03-30T01:39:47.624Z,6.16
2018-03-30T01:40:13.789Z,6.12
2018-03-30T01:40:39.925Z,6.2
2018-03-30T01:41:06.067Z,6.24
2018-03-30T01:41:32.202Z,6.17
2018-03-30T01:41:58.346Z,6.22
2018-03-30T01:42:24.476Z,6.19
2018-03-30T01:42:50.615Z,6.08
2018-03-30T01:43:16.746Z,6.09
2018-03-30T01:43:42.908Z,6.02
2018-03-30T01:44:09.046Z,6.02
2018-03-30T01:44:35.176Z,6.02
2018-03-30T01:45:01.319Z,6.08
2018-03-30T01:45:27.455Z,6.09
2018-03-30T01:45:53.588Z,6.09
2018-03-30T01:46:19.750Z,6.17
2018-03-30T01:46:45.906Z,6.17
2018-03-30T01:47:12.038Z,6.17
2018-03-30T01:47:38.191Z,6.09
2018-03-30T01:48:04.323Z,6.12
2018-03-30T01:48:30.459Z,6.14
2018-03-30T01:48:56.596Z,6.08
2018-03-30T01:49:22.762Z,6.17
2018-03-30T01:49:48.891Z,6.04
2018-03-30T01:50:15.034Z,6.04
2018-03-30T01:50:41.192Z,6.08
2018-03-30T01:51:07.332Z,6.02
2018-03-30T01:51:33.477Z,6.04
2018-03-30T01:51:59.607Z,6.05
2018-03-30T01:52:25.739Z,6.2
2018-03-30T01:52:51.873Z,6.09
2018-03-30T01:53:18.012Z,6.16
2018-03-30T01:53:44.147Z,6.14
2018-03-30T01:54:10.286Z,6.12
2018-03-30T01:54:36.418Z,6.08
2018-03-30T01:55:02.581Z,6.16
2018-03-30T01:55:28.712Z,6.3
2018-03-30T01:55:54.844Z,6.16
2018-03-30T01:56:20.984Z,6.28
2018-03-30T01:56:47.117Z,6.19
2018-03-30T01:57:13.251Z,6.19
2018-03-30T01:57:39.414Z,6.2
2018-03-30T01:58:05.552Z,6.14
2018-03-30T01:58:31.682Z,6.2
2018-03-30T01:58:57.874Z,6.24
2018-03-30T01:59:23.987Z,6.17
2018-03-30T01:59:50.119Z,6.16
2018-03-30T02:00:16.259Z,6.12
2018-03-30T02:00:42.390Z,6.12
2018-03-30T02:01:08.530Z,6.04
2018-03-30T02:01:34.713Z,6.08
2018-03-30T02:02:00.858Z,6.09
2018-03-30T02:02:26.984Z,6.14
2018-03-30T02:02:53.123Z,6.24
2018-03-30T02:03:19.259Z,6.28
2018-03-30T02:03:45.397Z,6.2
2018-03-30T02:04:11.532Z,6.22
2018-03-30T02:04:37.661Z,6.27
2018-03-30T02:05:03.800Z,6.35
2018-03-30T02:05:29.953Z,6.28
2018-03-30T02:05:56.108Z,6.39
2018-03-30T02:06:22.243Z,6.3
2018-03-30T02:06:48.410Z,6.3
2018-03-30T02:07:14.542Z,6.35
2018-03-30T02:07:40.680Z,6.31
2018-03-30T02:08:06.813Z,6.36
2018-03-30T02:08:32.952Z,6.28
2018-03-30T02:08:59.119Z,6.3
2018-03-30T02:09:25.252Z,6.28
2018-03-30T02:09:51.387Z,6.33
2018-03-30T02:10:17.552Z,6.31
2018-03-30T02:10:43.683Z,6.38
2018-03-30T02:11:09.850Z,6.45
2018-03-30T02:11:35.992Z,6.38
2018-03-30T02:12:02.123Z,6.41
2018-03-30T02:12:28.260Z,6.41
2018-03-30T02:12:54.421Z,6.3
2018-03-30T02:13:20.555Z,6.42
2018-03-30T02:13:46.706Z,6.41
2018-03-30T02:14:12.845Z,6.38
2018-03-30T02:14:38.986Z,6.45
2018-03-30T02:15:05.118Z,6.42
2018-03-30T02:15:31.248Z,6.41
2018-03-30T02:15:57.460Z,6.41
2018-03-30T02:16:23.534Z,6.44
2018-03-30T02:16:49.695Z,6.49
2018-03-30T02:17:15.832Z,6.44
2018-03-30T02:17:41.971Z,6.52
2018-03-30T02:18:08.100Z,6.51
2018-03-30T02:18:34.242Z,6.48
2018-03-30T02:19:00.376Z,6.51
2018-03-30T02:19:26.510Z,6.56
2018-03-30T02:19:52.658Z,6.48
2018-03-30T02:20:18.819Z,6.42
2018-03-30T02:20:44.948Z,6.44
2018-03-30T02:21:11.080Z,6.42
2018-03-30T02:21:37.234Z,6.31
2018-03-30T02:22:03.369Z,6.26
2018-03-30T02:22:29.513Z,6.38
2018-03-30T02:22:55.663Z,6.28
2018-03-30T02:23:21.831Z,6.28
2018-03-30T02:23:47.961Z,6.3
2018-03-30T02:24:14.103Z,6.33
2018-03-30T02:24:40.246Z,6.28
2018-03-30T02:25:06.381Z,6.24
2018-03-30T02:25:32.550Z,6.31
2018-03-30T02:25:58.706Z,6.35
2018-03-30T02:26:24.840Z,6.27
2018-03-30T02:26:50.980Z,6.3
2018-03-30T02:27:17.116Z,6.27
2018-03-30T02:27:43.257Z,6.38
2018-03-30T02:28:09.394Z,6.31
2018-03-30T02:28:35.530Z,6.41
2018-03-30T02:29:01.661Z,6.35
2018-03-30T02:29:27.808Z,6.42
2018-03-30T02:29:53.969Z,6.42
2018-03-30T02:30:20.109Z,6.51
2018-03-30T02:30:46.267Z,6.45
2018-03-30T02:31:12.421Z,6.39
2018-03-30T02:31:38.559Z,6.36
2018-03-30T02:32:04.697Z,6.41
2018-03-30T02:32:30.857Z,6.39
2018-03-30T02:32:56.991Z,6.39
2018-03-30T02:33:23.150Z,6.48
2018-03-30T02:33:49.315Z,6.44
2018-03-30T02:34:15.456Z,6.44
2018-03-30T02:34:41.584Z,6.36
2018-03-30T02:35:07.728Z,6.42
2018-03-30T02:35:33.880Z,6.35
2018-03-30T02:36:00.042Z,6.44
2018-03-30T02:36:26.177Z,6.31
2018-03-30T02:36:52.319Z,6.27
2018-03-30T02:37:18.480Z,6.36
2018-03-30T02:37:44.619Z,6.27
2018-03-30T02:38:10.753Z,6.26
2018-03-30T02:38:36.941Z,6.17
2018-03-30T02:39:03.100Z,6.12
2018-03-30T02:39:29.232Z,6.2
2018-03-30T02:39:55.369Z,6.26
2018-03-30T02:40:21.507Z,6.24
2018-03-30T02:40:47.668Z,6.24
2018-03-30T02:41:13.808Z,6.17
2018-03-30T02:41:39.943Z,6.27
2018-03-30T02:42:06.097Z,6.33
2018-03-30T02:42:32.238Z,6.31
2018-03-30T02:42:58.376Z,6.35
2018-03-30T02:43:24.539Z,6.28
2018-03-30T02:43:50.681Z,6.36
2018-03-30T02:44:16.861Z,6.27
2018-03-30T02:44:43.005Z,6.24
2018-03-30T02:45:09.132Z,6.24
2018-03-30T02:45:35.271Z,6.17
2018-03-30T02:46:01.409Z,6.17
2018-03-30T02:46:27.548Z,6.2
2018-03-30T02:46:53.681Z,6.11
2018-03-30T02:47:19.815Z,6.14
2018-03-30T02:47:45.953Z,6.16
2018-03-30T02:48:12.087Z,6.2
2018-03-30T02:48:38.225Z,6.11
2018-03-30T02:49:04.358Z,6.09
2018-03-30T02:49:30.491Z,6.07
2018-03-30T02:49:56.623Z,6.02
2018-03-30T02:50:22.790Z,6.09
2018-03-30T02:50:48.929Z,6.17
2018-03-30T02:51:15.068Z,6.19
2018-03-30T02:51:41.229Z,6.17
2018-03-30T02:52:07.361Z,6.12
2018-03-30T02:52:33.518Z,6.08
2018-03-30T02:52:59.656Z,6.12
2018-03-30T02:53:25.787Z,6.08
2018-03-30T02:53:51.924Z,6.16
2018-03-30T02:54:18.114Z,6.3
2018-03-30T02:54:44.248Z,6.31
2018-03-30T02:55:10.389Z,6.24
2018-03-30T02:55:36.523Z,6.27
2018-03-30T02:56:02.695Z,6.27
2018-03-30T02:56:28.828Z,6.26
2018-03-30T02:56:54.964Z,6.3
2018-03-30T02:57:21.095Z,6.31
2018-03-30T02:57:47.280Z,6.31
2018-03-30T02:58:13.414Z,6.27
2018-03-30T02:58:39.604Z,6.27
2018-03-30T02:59:05.744Z,6.16
2018-03-30T02:59:31.908Z,6.07
2018-03-30T02:59:58.047Z,6.05
2018-03-30T03:00:24.186Z,6.14
2018-03-30T03:00:50.320Z,6.08
2018-03-30T03:01:16.455Z,6.05
2018-03-30T03:01:42.588Z,6.05
2018-03-30T03:02:08.723Z,6.04
2018-03-30T03:02:34.861Z,6.04
2018-03-30T03:03:00.999Z,6.12
2018-03-30T03:03:27.131Z,6.07
2018-03-30T03:03:53.271Z,6.07
2018-03-30T03:04:19.407Z,6.08
2018-03-30T03:04:45.544Z,6.04
2018-03-30T03:05:11.683Z,6.04
2018-03-30T03:05:37.814Z,6.02
2018-03-30T03:06:03.947Z,6.01
2018-03-30T03:06:30.084Z,6.04
2018-03-30T03:06:56.250Z,6.02
2018-03-30T03:07:22.451Z,6.04
2018-03-30T03:07:48.575Z,6.07
2018-03-30T03:08:14.712Z,5.98
2018-03-30T03:08:40.846Z,6.02
2018-03-30T03:09:07.004Z,6.04
2018-03-30T03:09:33.145Z,6.09
2018-03-30T03:09:59.282Z,6.08
2018-03-30T03:10:25.419Z,6.05
2018-03-30T03:10:51.561Z,5.98
2018-03-30T03:11:17.699Z,6.01
2018-03-30T03:11:43.831Z,5.98
2018-03-30T03:12:09.966Z,5.98
2018-03-30T03:12:36.104Z,6.02
2018-03-30T03:13:02.242Z,6.04
2018-03-30T03:13:28.381Z,6.04
2018-03-30T03:13:54.515Z,6.07
2018-03-30T03:14:20.652Z,6.07
2018-03-30T03:14:46.791Z,6.07
2018-03-30T03:15:12.970Z,6.07
2018-03-30T03:15:39.109Z,6.07
2018-03-30T03:16:05.252Z,6.08
2018-03-30T03:16:31.394Z,6.04
2018-03-30T03:16:57.555Z,6.01
2018-03-30T03:17:23.711Z,6.05
2018-03-30T03:17:49.850Z,6.11
2018-03-30T03:18:15.992Z,6.05
2018-03-30T03:18:42.132Z,6.02
2018-03-30T03:19:08.269Z,6.05
2018-03-30T03:19:34.432Z,6.05
2018-03-30T03:20:00.566Z,6.05
2018-03-30T03:20:26.707Z,6.02
2018-03-30T03:20:52.837Z,5.97
2018-03-30T03:21:18.973Z,5.91
2018-03-30T03:21:45.109Z,5.94
2018-03-30T03:22:11.247Z,5.97
2018-03-30T03:22:37.409Z,5.98
2018-03-30T03:23:03.570Z,5.93
2018-03-30T03:23:29.704Z,6.05
2018-03-30T03:23:55.843Z,5.97
2018-03-30T03:24:21.999Z,6.04
2018-03-30T03:24:48.167Z,5.97
2018-03-30T03:25:14.308Z,5.99
2018-03-30T03:25:40.441Z,6.08
2018-03-30T03:26:06.595Z,6.11
2018-03-30T03:26:32.740Z,6.08
2018-03-30T03:26:58.886Z,6.16
2018-03-30T03:27:25.039Z,6.2
2018-03-30T03:27:51.176Z,6.07
2018-03-30T03:28:17.312Z,6.08
2018-03-30T03:28:43.479Z,5.99
2018-03-30T03:29:09.580Z,6.04
2018-03-30T03:29:35.716Z,6.09
2018-03-30T03:30:01.863Z,6.05
2018-03-30T03:30:28.029Z,6.07
2018-03-30T03:30:54.169Z,6.19
2018-03-30T03:31:20.324Z,6.14
2018-03-30T03:31:46.459Z,6.2
2018-03-30T03:32:12.596Z,6.12
2018-03-30T03:32:38.735Z,6.19
2018-03-30T03:33:04.875Z,6.11
2018-03-30T03:33:31.010Z,6.16
2018-03-30T03:33:57.140Z,6.09
2018-03-30T03:34:23.278Z,6.12
2018-03-30T03:34:49.442Z,6.16
2018-03-30T03:35:15.603Z,6.14
2018-03-30T03:35:41.741Z,6.19
2018-03-30T03:36:07.881Z,6.08
2018-03-30T03:36:34.022Z,6.12
2018-03-30T03:37:00.174Z,6.07
2018-03-30T03:37:26.329Z,6.08
2018-03-30T03:37:52.473Z,6.12
2018-03-30T03:38:18.607Z,6.16
2018-03-30T03:38:44.744Z,6.2
2018-03-30T03:39:10.884Z,6.2
2018-03-30T03:39:37.020Z,6.2
2018-03-30T03:40:03.153Z,6.3
2018-03-30T03:40:29.290Z,6.28
2018-03-30T03:40:55.426Z,6.17
2018-03-30T03:41:21.562Z,6.26
2018-03-30T03:41:47.698Z,6.09
2018-03-30T03:42:13.844Z,6.07
2018-03-30T03:42:39.974Z,6.2
2018-03-30T03:43:06.114Z,6.07
2018-03-30T03:43:32.247Z,6.08
2018-03-30T03:43:58.387Z,6.08
2018-03-30T03:44:24.526Z,6.12
2018-03-30T03:44:50.667Z,6.11
2018-03-30T03:45:16.804Z,6.11
2018-03-30T03:45:42.934Z,6.02
2018-03-30T03:46:09.074Z,5.98
2018-03-30T03:46:35.210Z,6.01
2018-03-30T03:47:01.374Z,5.87
2018-03-30T03:47:27.505Z,5.94
2018-03-30T03:47:53.654Z,5.97
2018-03-30T03:48:19.805Z,5.89
2018-03-30T03:48:45.946Z,5.87
2018-03-30T03:49:12.079Z,5.99
2018-03-30T03:49:38.246Z,5.97
2018-03-30T03:50:04.398Z,6.04
2018-03-30T03:50:30.541Z,6.09
2018-03-30T03:50:56.686Z,6.09
2018-03-30T03:51:22.818Z,6.09
2018-03-30T03:51:48.942Z,6.09
2018-03-30T03:52:15.081Z,6.05
2018-03-30T03:52:41.220Z,6.12
2018-03-30T03:53:07.390Z,6.19
2018-03-30T03:53:33.533Z,6.17
2018-03-30T03:53:59.672Z,6.08
2018-03-30T03:54:25.824Z,6.04
2018-03-30T03:54:51.972Z,6.04
2018-03-30T03:55:18.131Z,6.01
2018-03-30T03:55:44.275Z,6.01
2018-03-30T03:56:10.434Z,5.93
2018-03-30T03:56:36.635Z,5.94
2018-03-30T03:57:02.746Z,5.98
2018-03-30T03:57:28.878Z,5.94
2018-03-30T03:57:55.015Z,5.97
2018-03-30T03:58:21.149Z,5.99
2018-03-30T03:58:47.304Z,6.02
2018-03-30T03:59:13.452Z,5.97
2018-03-30T03:59:39.599Z,6.04
2018-03-30T04:00:05.741Z,5.9
2018-03-30T04:00:31.928Z,5.8
2018-03-30T04:00:58.062Z,5.86
2018-03-30T04:01:24.199Z,5.72
2018-03-30T04:01:50.337Z,5.86
2018-03-30T04:02:16.476Z,5.87
2018-03-30T04:02:42.612Z,5.83
2018-03-30T04:03:08.766Z,5.83
2018-03-30T04:03:34.917Z,5.76
2018-03-30T04:04:01.109Z,5.75
2018-03-30T04:04:27.240Z,5.8
2018-03-30T04:04:53.382Z,5.83
2018-03-30T04:05:19.519Z,5.89
2018-03-30T04:05:45.654Z,5.83
2018-03-30T04:06:11.789Z,5.73
2018-03-30T04:06:37.936Z,5.83
2018-03-30T04:07:04.066Z,5.82
2018-03-30T04:07:30.205Z,5.82
2018-03-30T04:07:56.338Z,5.83
2018-03-30T04:08:22.503Z,5.89
2018-03-30T04:08:48.634Z,5.93
2018-03-30T04:09:14.772Z,5.82
2018-03-30T04:09:40.909Z,5.86
2018-03-30T04:10:07.090Z,5.84
2018-03-30T04:10:33.193Z,5.83
2018-03-30T04:10:59.322Z,5.87
2018-03-30T04:11:25.461Z,5.89
2018-03-30T04:11:51.602Z,5.84
2018-03-30T04:12:17.742Z,5.9
2018-03-30T04:12:43.869Z,5.84
2018-03-30T04:13:10.038Z,5.8
2018-03-30T04:13:36.169Z,5.76
2018-03-30T04:14:02.306Z,5.82
2018-03-30T04:14:28.434Z,5.83
2018-03-30T04:14:54.573Z,5.83
2018-03-30T04:15:20.730Z,5.76
2018-03-30T04:15:46.866Z,5.75
2018-03-30T04:16:13.043Z,5.76
2018-03-30T04:16:39.230Z,5.66
2018-03-30T04:17:05.315Z,5.79
2018-03-30T04:17:31.449Z,5.79
2018-03-30T04:17:57.607Z,5.82
2018-03-30T04:18:23.751Z,5.75
2018-03-30T04:18:49.881Z,5.86
2018-03-30T04:19:16.022Z,5.89
2018-03-30T04:19:42.162Z,5.91
2018-03-30T04:20:08.290Z,5.87
2018-03-30T04:20:34.438Z,5.87
2018-03-30T04:21:00.584Z,5.91
2018-03-30T04:21:26.723Z,5.94
2018-03-30T04:21:52.854Z,5.87
2018-03-30T04:22:18.993Z,5.87
2018-03-30T04:22:45.132Z,5.84
2018-03-30T04:23:11.272Z,5.89
2018-03-30T04:23:37.404Z,5.91
2018-03-30T04:24:03.545Z,5.99
2018-03-30T04:24:29.703Z,5.91
2018-03-30T04:24:55.854Z,5.91
2018-03-30T04:25:22.019Z,6.04
2018-03-30T04:25:48.160Z,6.08
2018-03-30T04:26:14.293Z,5.97
2018-03-30T04:26:40.507Z,5.89
2018-03-30T04:27:06.590Z,5.84
2018-03-30T04:27:32.726Z,5.84
2018-03-30T04:27:58.867Z,5.97
2018-03-30T04:28:25.007Z,5.98
2018-03-30T04:28:51.141Z,5.9
2018-03-30T04:29:17.284Z,5.91
2018-03-30T04:29:43.450Z,5.89
2018-03-30T04:30:09.600Z,5.89
2018-03-30T04:30:35.741Z,5.93
2018-03-30T04:31:01.876Z,5.91
2018-03-30T04:31:28.017Z,5.97
2018-03-30T04:31:54.172Z,5.9
2018-03-30T04:32:20.306Z,5.94
2018-03-30T04:32:46.445Z,5.93
2018-03-30T04:33:12.603Z,5.97
2018-03-30T04:33:38.745Z,5.9
2018-03-30T04:34:04.881Z,6.01
2018-03-30T04:34:31.024Z,5.99
2018-03-30T04:34:57.159Z,5.94
2018-03-30T04:35:23.303Z,5.86
2018-03-30T04:35:49.434Z,5.83
2018-03-30T04:36:15.597Z,5.87
2018-03-30T04:36:41.728Z,5.87
2018-03-30T04:37:07.860Z,5.82
2018-03-30T04:37:34.001Z,5.87
2018-03-30T04:38:00.136Z,5.86
2018-03-30T04:38:26.274Z,5.93
2018-03-30T04:38:52.407Z,5.94
2018-03-30T04:39:18.549Z,5.89
2018-03-30T04:39:44.689Z,5.9
2018-03-30T04:40:10.826Z,5.94
2018-03-30T04:40:36.961Z,5.99
2018-03-30T04:41:03.097Z,6.04
2018-03-30T04:41:29.252Z,5.94
2018-03-30T04:41:55.394Z,6.05
2018-03-30T04:42:21.547Z,5.99
2018-03-30T04:42:47.689Z,6.01
2018-03-30T04:43:13.872Z,6.04
2018-03-30T04:43:40.017Z,6.02
2018-03-30T04:44:06.195Z,6.07
2018-03-30T04:44:32.338Z,6.14
2018-03-30T04:44:58.465Z,6.09
2018-03-30T04:45:24.603Z,6.09
2018-03-30T04:45:50.747Z,6.11
2018-03-30T04:46:16.881Z,6.08
2018-03-30T04:46:43.018Z,6.17
2018-03-30T04:47:09.164Z,6.11
2018-03-30T04:47:35.297Z,6.07
2018-03-30T04:48:01.445Z,6.14
2018-03-30T04:48:27.582Z,6.09
2018-03-30T04:48:53.715Z,6.04
2018-03-30T04:49:19.846Z,6.09
2018-03-30T04:49:46.001Z,6.09
2018-03-30T04:50:12.153Z,6.12
2018-03-30T04:50:38.284Z,6.07
2018-03-30T04:51:04.425Z,6.02
2018-03-30T04:51:30.552Z,6.04
2018-03-30T04:51:56.692Z,6.04
2018-03-30T04:52:22.848Z,6.11
2018-03-30T04:52:48.994Z,6.11
2018-03-30T04:53:15.123Z,6.09
2018-03-30T04:53:41.264Z,6.09
2018-03-30T04:54:07.407Z,6.09
2018-03-30T04:54:33.560Z,6.05
2018-03-30T04:54:59.695Z,6.05
2018-03-30T04:55:25.819Z,6.02
2018-03-30T04:55:51.956Z,5.99
2018-03-30T04:56:18.089Z,6.01
2018-03-30T04:56:44.228Z,6.01
2018-03-30T04:57:10.366Z,5.97
2018-03-30T04:57:36.498Z,6.04
2018-03-30T04:58:02.634Z,5.98
2018-03-30T04:58:28.767Z,5.98
2018-03-30T04:58:54.909Z,6.07
2018-03-30T04:59:21.043Z,6.04
2018-03-30T04:59:47.183Z,6.07
2018-03-30T05:00:13.319Z,6.01
2018-03-30T05:00:39.454Z,6.05
2018-03-30T05:01:05.593Z,6.02
2018-03-30T05:01:31.728Z,6.05
2018-03-30T05:01:57.895Z,6.04
2018-03-30T05:02:24.024Z,6.04
2018-03-30T05:02:50.166Z,6.04
2018-03-30T05:03:16.305Z,5.98
2018-03-30T05:03:42.449Z,6.11
2018-03-30T05:04:08.585Z,6.07
2018-03-30T05:04:34.721Z,6.09
2018-03-30T05:05:00.865Z,6.07
2018-03-30T05:05:27.001Z,6.09
2018-03-30T05:05:53.133Z,6.11
2018-03-30T05:06:19.275Z,6.08
2018-03-30T05:06:45.406Z,6.11
2018-03-30T05:07:11.546Z,6.17
2018-03-30T05:07:37.676Z,6.11
2018-03-30T05:08:03.815Z,6.12
2018-03-30T05:08:29.956Z,6.07
2018-03-30T05:08:56.092Z,6.09
2018-03-30T05:09:22.249Z,6.04
2018-03-30T05:09:48.385Z,6.05
2018-03-30T05:10:14.521Z,6.09
2018-03-30T05:10:40.656Z,6.09
2018-03-30T05:11:06.806Z,6.12
2018-03-30T05:11:32.956Z,6.22
2018-03-30T05:11:59.097Z,6.28
2018-03-30T05:12:25.253Z,6.28
2018-03-30T05:12:51.394Z,6.3
2018-03-30T05:13:17.531Z,6.33
2018-03-30T05:13:43.670Z,6.38
2018-03-30T05:14:09.801Z,6.28
2018-03-30T05:14:35.935Z,6.3
2018-03-30T05:15:02.070Z,6.31
2018-03-30T05:15:28.209Z,6.27
2018-03-30T05:15:54.350Z,6.27
2018-03-30T05:16:20.475Z,6.24
2018-03-30T05:16:46.612Z,6.31
2018-03-30T05:17:12.770Z,6.35
2018-03-30T05:17:38.919Z,6.41
2018-03-30T05:18:05.049Z,6.36
2018-03-30T05:18:31.198Z,6.44
2018-03-30T05:18:57.336Z,6.38
2018-03-30T05:19:23.483Z,6.39
2018-03-30T05:19:49.617Z,6.41
2018-03-30T05:20:15.798Z,6.42
2018-03-30T05:20:41.886Z,6.42
2018-03-30T05:21:08.023Z,6.38
2018-03-30T05:21:34.164Z,6.38
2018-03-30T05:22:00.331Z,6.35
2018-03-30T05:22:26.455Z,6.46
2018-03-30T05:22:52.600Z,6.36
2018-03-30T05:23:18.729Z,6.38
2018-03-30T05:23:44.897Z,6.33
2018-03-30T05:24:11.063Z,6.38
2018-03-30T05:24:37.199Z,6.44
2018-03-30T05:25:03.340Z,6.42
2018-03-30T05:25:29.507Z,6.41
2018-03-30T05:25:55.642Z,6.44
2018-03-30T05:26:21.778Z,6.44
2018-03-30T05:26:47.910Z,6.51
2018-03-30T05:27:14.052Z,6.48
2018-03-30T05:27:40.187Z,6.49
2018-03-30T05:28:06.350Z,6.46
2018-03-30T05:28:32.482Z,6.41
2018-03-30T05:28:58.624Z,6.36
2018-03-30T05:29:24.790Z,6.44
2018-03-30T05:29:50.924Z,6.38
2018-03-30T05:30:17.079Z,6.36
2018-03-30T05:30:43.217Z,6.35
2018-03-30T05:31:09.350Z,6.45
2018-03-30T05:31:35.487Z,6.48
2018-03-30T05:32:01.628Z,6.41
2018-03-30T05:32:27.761Z,6.44
2018-03-30T05:32:53.920Z,6.39
2018-03-30T05:33:20.061Z,6.45
2018-03-30T05:33:46.203Z,6.49
2018-03-30T05:34:12.362Z,6.49
2018-03-30T05:34:38.491Z,6.49
2018-03-30T05:35:04.626Z,6.66
2018-03-30T05:35:30.769Z,6.6
2018-03-30T05:35:56.901Z,6.67
2018-03-30T05:36:23.035Z,6.75
2018-03-30T05:36:49.169Z,6.57
2018-03-30T05:37:15.312Z,6.6
2018-03-30T05:37:41.452Z,6.72
2018-03-30T05:38:07.592Z,6.6
2018-03-30T05:38:33.728Z,6.67
2018-03-30T05:38:59.867Z,6.7
2018-03-30T05:39:26.011Z,6.72
2018-03-30T05:39:52.141Z,6.75
2018-03-30T05:40:18.287Z,6.74
2018-03-30T05:40:44.419Z,6.64
2018-03-30T05:41:10.552Z,6.7
2018-03-30T05:41:36.691Z,6.72
2018-03-30T05:42:02.827Z,6.77
2018-03-30T05:42:28.961Z,6.79
2018-03-30T05:42:55.100Z,6.72
2018-03-30T05:43:21.260Z,6.63
2018-03-30T05:43:47.398Z,6.72
2018-03-30T05:44:13.537Z,6.74
2018-03-30T05:44:39.665Z,6.54
2018-03-30T05:45:05.804Z,6.72
2018-03-30T05:45:31.939Z,6.74
2018-03-30T05:45:58.070Z,6.72
2018-03-30T05:46:24.213Z,6.69
2018-03-30T05:46:50.342Z,6.74
2018-03-30T05:47:16.486Z,6.67
2018-03-30T05:47:42.622Z,6.59
2018-03-30T05:48:08.755Z,6.74
2018-03-30T05:48:34.918Z,6.72